Latest Weather Observations for Tasman Island

IDT60801

Issued at 8:03 pm EDT Thursday 18 December 2014 (issued every 30 minutes, with the page automatically refreshed every 10 minutes)

About weather observations | Map of weather stations | Latest weather observations for TAS | Other Formats
Station Details ID: 094155 Name: TASMAN ISLAND Lat: -43.24 Lon: 148.00 Height: 240.0 m
Data from the previous 72 hours. | See also: Recent months at Tasman Island
Date/Time
EDT
Temp
°C
App
Temp
°C
Dew
Point
Rel
Hum
%
Delta-T
°C
Wind Press
QNH
hPa
Press
MSL
hPa
Rain
since 9 am
mm
Dir
 
Spd
km/h
Gust
km/h
Spd
kts
Gust
kts
18/08:00pm 13.4 10.5 6.7 64 3.3 WNW 11 30 6 16 1002.5 1002.3 3.2
18/07:30pm 13.1 10.6 8.2 72 2.5 N 11 35 6 19 1001.7 1001.5 3.2
18/07:00pm 13.0 11.3 8.3 73 2.4 N 7 24 4 13 1001.4 1001.1 3.2
18/06:30pm 13.0 10.0 7.7 70 2.6 WSW 13 33 7 18 1000.8 1000.6 3.2
18/06:00pm 12.3 10.8 9.1 81 1.6 W 7 24 4 13 1000.9 1000.7 3.2
18/05:30pm 12.1 10.1 10.0 87 1.1 WNW 11 35 6 19 1000.6 1000.4 3.2
18/05:00pm 11.8 8.0 11.3 97 0.3 WNW 22 33 12 18 1000.8 1000.6 3.0
18/04:30pm 14.0 9.5 11.3 84 1.5 NNW 26 44 14 24 1000.8 1000.6 0.0
18/04:06pm 14.6 9.0 11.4 81 1.7 N 32 50 17 27 1000.4 1000.2 0.0
18/04:00pm 14.6 7.4 10.4 76 2.2 N 39 54 21 29 1000.4 1000.2 0.0
18/03:30pm 15.2 7.7 10.8 75 2.4 NNE 41 56 22 30 1000.3 1000.1 0.0
18/03:00pm 14.8 6.4 9.6 71 2.7 NNE 44 57 24 31 1000.3 1000.1 0.0
18/02:30pm 14.8 6.3 9.2 69 2.9 NNE 44 61 24 33 1000.4 1000.2 0.0
18/02:19pm 14.9 7.4 9.5 70 2.8 N 39 59 21 32 1000.6 1000.4 0.0
18/02:00pm 14.4 6.4 9.0 70 2.8 NNE 41 57 22 31 1000.7 1000.5 0.0
18/01:32pm 14.3 5.9 9.1 71 2.7 NNE 43 63 23 34 1001.1 1000.9 0.0
18/01:30pm 14.3 5.7 8.9 70 2.8 NNE 44 63 24 34 1001.1 1000.9 0.0
18/01:00pm 13.9 5.1 9.5 75 2.3 NNE 46 57 25 31 1001.5 1001.2 0.0
18/12:30pm 15.0 6.3 8.5 65 3.3 N 44 65 24 35 1002.1 1001.9 0.0
18/12:12pm 15.3 6.2 8.3 63 3.6 N 46 67 25 36 1002.0 1001.8 0.0
18/12:00pm 15.1 6.0 8.6 65 3.4 N 46 57 25 31 1002.1 1001.9 0.0
18/11:30am 16.0 7.8 8.2 60 4.0 N 41 54 22 29 1002.3 1002.1 0.0
18/11:00am 15.3 7.3 7.3 59 4.0 N 39 48 21 26 1002.5 1002.3 0.0
18/10:30am 16.1 11.4 6.0 51 5.0 NNW 20 35 11 19 1002.9 1002.7 0.0
18/10:00am 14.7 7.4 4.4 50 4.9 NNW 32 44 17 24 1002.9 1002.7 0.0
18/09:30am 14.9 7.7 4.9 51 4.7 NNW 32 43 17 23 1003.2 1003.0 0.0
18/09:00am 14.1 6.6 3.6 49 4.8 NNW 32 44 17 24 1003.4 1003.2 0.0
18/08:30am 13.9 8.2 2.8 47 5.0 NNW 22 41 12 22 1003.5 1003.3 0.0
18/08:00am 13.2 8.6 3.8 53 4.3 NNW 17 33 9 18 1003.6 1003.4 0.0
18/07:30am 11.9 7.6 5.3 64 3.1 N 17 26 9 14 1003.5 1003.3 0.0
18/07:00am 12.2 7.3 4.2 58 3.7 N 19 30 10 16 1003.6 1003.4 0.0
18/06:30am 11.7 7.1 3.7 58 3.6 N 17 24 9 13 1003.6 1003.4 0.0
18/06:00am 11.9 6.8 2.9 54 4.0 NW 19 26 10 14 1003.6 1003.4 0.0
18/05:30am 12.0 6.8 2.5 52 4.2 NW 19 30 10 16 1003.5 1003.3 0.0
18/05:00am 11.9 5.3 1.8 50 4.4 NW 26 35 14 19 1003.4 1003.2 0.0
18/04:30am 11.7 5.6 2.5 53 4.0 NW 24 35 13 19 1003.4 1003.2 0.0
18/04:00am 12.0 5.0 1.9 50 4.4 NW 28 37 15 20 1003.5 1003.3 0.0
18/03:30am 12.0 5.9 2.5 52 4.2 NW 24 33 13 18 1003.5 1003.3 0.0
18/03:00am 11.3 8.0 6.2 71 2.4 NNW 13 20 7 11 1003.7 1003.5 0.0
18/02:30am 11.2 9.3 9.1 87 1.1 N 9 13 5 7 1004.0 1003.8 0.0
18/02:00am 11.5 10.1 9.4 87 1.1 NE 7 9 4 5 1004.2 1004.0 0.0
18/01:30am 11.9 9.2 9.1 83 1.4 NNE 13 19 7 10 1004.6 1004.4 0.0
18/01:00am 12.1 9.5 9.3 83 1.4 NE 13 24 7 13 1004.8 1004.6 0.0
18/12:30am 11.8 9.1 8.8 82 1.5 NE 13 26 7 14 1005.2 1005.1 0.0
18/12:00am 11.7 8.4 8.2 79 1.7 NNE 15 28 8 15 1005.4 1005.3 0.0
 
Date/Time
EDT
Temp
°C
App
Temp
°C
Dew
Point
Rel
Hum
%
Delta-T
°C
Wind Press
QNH
hPa
Press
MSL
hPa
Rain
since 9 am
mm
Dir
 
Spd
km/h
Gust
km/h
Spd
kts
Gust
kts
17/11:30pm 11.7 8.0 7.8 77 1.9 NE 17 28 9 15 1005.8 1005.6 0.0
17/11:00pm 11.5 7.7 7.4 76 2.0 NE 17 32 9 17 1006.1 1005.9 0.0
17/10:30pm 11.5 7.2 7.2 75 2.1 NE 19 30 10 16 1006.3 1006.1 0.0
17/10:00pm 11.5 7.6 7.2 75 2.1 NE 17 32 9 17 1006.6 1006.4 0.0
17/09:30pm 11.2 7.0 7.3 77 1.9 NE 19 35 10 19 1006.6 1006.4 0.0
17/09:00pm 11.6 9.1 6.7 72 2.4 ENE 9 22 5 12 1006.4 1006.2 0.0
17/08:30pm 11.4 9.1 7.3 76 2.0 ENE 9 15 5 8 1006.5 1006.3 0.0
17/08:00pm 11.4 9.9 6.9 74 2.2 ENE 4 6 2 3 1006.4 1006.2 0.0
17/07:30pm 11.7 10.7 7.2 74 2.2 ENE 2 4 1 2 1006.2 1006.0 0.0
17/07:00pm 11.9 10.5 7.4 74 2.2 WSW 4 7 2 4 1005.5 1005.4 0.0
17/06:30pm 12.5 9.2 6.5 67 2.9 SSW 13 20 7 11 1004.6 1004.4 0.0
17/06:00pm 12.2 8.9 6.5 68 2.8 SSW 13 20 7 11 1004.6 1004.4 0.0
17/05:30pm 13.0 9.5 7.0 67 2.9 SSW 15 22 8 12 1004.5 1004.3 0.0
17/05:00pm 13.4 9.4 6.5 63 3.4 SSW 17 24 9 13 1004.5 1004.3 0.0
17/04:30pm 13.1 10.2 6.7 65 3.1 SSW 11 17 6 9 1004.4 1004.2 0.0
17/04:00pm 13.4 10.5 6.7 64 3.3 SSW 11 17 6 9 1004.5 1004.3 0.0
17/03:30pm 12.6 9.9 5.5 62 3.4 SW 9 19 5 10 1004.5 1004.3 0.0
17/03:00pm 13.9 10.6 6.5 61 3.6 SW 13 20 7 11 1004.2 1004.0 0.0
17/02:30pm 14.6 11.6 5.9 56 4.2 WSW 11 22 6 12 1004.1 1003.9 0.0
17/02:00pm 13.9 10.7 5.3 56 4.1 W 11 19 6 10 1004.1 1003.9 0.0
17/01:30pm 13.1 11.0 6.5 64 3.2 WNW 7 19 4 10 1004.0 1003.8 0.0
17/01:00pm 11.4 8.4 6.1 70 2.5 W 11 24 6 13 1003.9 1003.7 0.0
17/12:30pm 13.4 11.1 5.6 59 3.7 SW 7 24 4 13 1003.5 1003.3 0.0
17/12:00pm 12.7 9.8 4.4 57 3.9 SSW 9 28 5 15 1003.0 1002.8 0.0
17/11:30am 12.4 9.2 5.3 62 3.3 NNW 11 44 6 24 1002.5 1002.3 0.0
17/11:00am 12.2 9.4 5.1 62 3.3 NNW 9 33 5 18 1002.2 1002.0 0.0
17/10:30am 11.1 8.7 5.4 68 2.7 NNW 7 19 4 10 1002.0 1001.8 0.0
17/10:00am 11.4 8.3 5.7 68 2.7 NW 11 39 6 21 1001.2 1001.0 0.0
17/09:30am 10.5 7.5 5.9 73 2.2 NW 11 32 6 17 1001.0 1000.8 0.0
17/09:00am 9.2 5.1 6.1 81 1.5 SW 17 41 9 22 1000.2 1000.0 24.0
17/08:30am 10.5 7.2 4.4 66 2.8 NNW 11 33 6 18 999.8 999.6 24.0
17/08:00am 9.9 6.8 5.5 74 2.0 E 11 41 6 22 999.0 998.8 24.0
17/07:30am 9.9 5.8 4.1 67 2.6 WNW 15 59 8 32 997.7 997.4 24.0
17/07:00am 9.8 5.7 4.4 69 2.5 NW 15 48 8 26 997.8 997.5 24.0
17/06:30am 9.6 5.9 4.4 70 2.3 N 13 33 7 18 997.1 996.8 24.0
17/06:00am 9.1 4.9 3.9 70 2.3 NNE 15 52 8 28 996.0 995.8 24.0
17/05:30am 9.3 5.6 4.3 71 2.2 NW 13 46 7 25 995.4 995.2 24.0
17/05:00am 9.4 5.7 4.4 71 2.3 E 13 54 7 29 995.0 994.8 24.0
17/04:30am 9.7 5.5 3.9 67 2.6 NW 15 48 8 26 994.3 994.0 24.0
17/04:00am 9.6 4.8 4.8 72 2.2 NW 19 56 10 30 993.5 993.2 24.0
17/03:30am 10.2 6.1 4.1 66 2.7 NNW 15 44 8 24 993.0 992.7 24.0
17/03:00am 10.1 6.4 4.7 69 2.5 NNE 13 65 7 35 992.8 992.5 24.0
17/02:30am 10.1 6.7 5.7 74 2.0 WNW 13 43 7 23 991.4 991.2 24.0
17/02:00am 10.2 6.7 7.1 81 1.5 NW 15 44 8 24 991.4 991.2 24.0
17/01:30am 10.1 5.8 7.2 82 1.4 WNW 19 63 10 34 990.9 990.6 24.0
17/01:09am 10.2 6.6 8.3 88 0.9 WNW 17 65 9 35 990.5 990.2 24.0
17/01:00am 9.5 6.7 8.7 95 0.4 NW 13 67 7 36 990.7 990.4 23.8
17/12:37am 10.8 7.0 7.7 81 1.5 SW 17 76 9 41 989.9 989.6 22.6
17/12:30am 11.3 8.6 7.4 77 1.9 N 11 35 6 19 990.2 989.9 22.6
17/12:00am 11.4 7.1 7.9 79 1.7 SW 20 61 11 33 989.8 989.5 22.6
 
Date/Time
EDT
Temp
°C
App
Temp
°C
Dew
Point
Rel
Hum
%
Delta-T
°C
Wind Press
QNH
hPa
Press
MSL
hPa
Rain
since 9 am
mm
Dir
 
Spd
km/h
Gust
km/h
Spd
kts
Gust
kts
16/11:30pm 11.5 9.2 7.4 76 2.0 WSW 9 39 5 21 989.5 989.2 22.6
16/11:00pm 11.7 8.2 7.4 75 2.1 WNW 15 44 8 24 989.3 989.0 22.6
16/10:30pm 12.0 9.3 7.5 74 2.2 WNW 11 39 6 21 989.2 988.9 22.6
16/10:00pm 12.6 10.1 8.1 74 2.3 NW 11 33 6 18 988.1 987.9 22.6
16/09:37pm 13.2 7.3 9.1 76 2.1 WNW 30 61 16 33 987.5 987.3 22.6
16/09:30pm 13.3 5.1 8.4 72 2.5 WNW 41 61 22 33 987.5 987.3 22.6
16/09:01pm 13.3 4.9 8.8 74 2.3 NW 43 63 23 34 986.5 986.2 22.6
16/09:00pm 13.3 5.3 9.0 75 2.2 NW 41 61 22 33 986.4 986.1 22.6
16/08:55pm 12.7 6.0 11.1 90 0.9 NNW 37 57 20 31 986.3 986.0 22.6
16/08:31pm 12.5 7.1 12.3 99 0.1 N 32 52 17 28 986.5 986.2 22.6
16/08:30pm 12.4 7.4 12.2 99 0.1 N 30 46 16 25 986.5 986.2 22.6
16/08:00pm 12.2 9.3 12.2 100 0.0 N 19 30 10 16 985.7 985.4 22.4
16/07:30pm 12.2 7.6 12.2 100 0.0 SSW 28 41 15 22 985.2 984.9 20.6
16/07:00pm 12.1 9.0 12.1 100 0.0 S 20 33 11 18 985.8 985.5 16.8
16/06:30pm 12.1 9.5 12.1 100 0.0 SW 17 26 9 14 986.0 985.7 16.2
16/06:25pm 12.3 10.6 12.3 100 0.0 SSW 13 24 7 13 986.5 986.2 15.8
16/06:00pm 12.0 9.4 12.0 100 0.0 SSW 17 39 9 21 984.5 984.2 15.0
16/05:30pm 12.5 10.4 12.5 100 0.0 WSW 15 24 8 13 984.2 983.9 6.8
16/05:00pm 12.7 10.7 12.7 100 0.0 SW 15 22 8 12 984.5 984.2 6.8
16/04:30pm 12.8 11.2 12.8 100 0.0 W 13 22 7 12 985.4 985.1 6.8
16/04:00pm 12.6 11.3 12.6 100 0.0 SSW 11 33 6 18 985.6 985.3 6.8
16/03:43pm 12.8 5.9 12.8 100 0.0 SW 41 82 22 44 985.4 985.1 4.8
16/03:33pm 13.1 3.6 12.3 95 0.4 WNW 54 122 29 66 983.5 983.2 0.4
16/03:32pm 13.4 3.4 12.6 95 0.4 N 57 122 31 66 983.1 982.8 0.4
16/03:30pm 14.4 3.6 13.8 96 0.3 N 63 122 34 66 981.4 981.1 0.4
16/03:29pm 14.9 4.2 13.9 94 0.6 N 63 95 34 51 983.0 982.7 0.4
16/03:09pm 16.7 8.3 16.7 100 0.0 N 56 74 30 40 984.4 984.1 0.4
16/03:00pm 16.5 10.0 16.5 100 0.0 N 46 63 25 34 985.0 984.7 0.4
16/02:30pm 16.2 10.1 16.2 100 0.0 N 43 56 23 30 986.0 985.7 0.4
16/02:00pm 16.1 9.4 16.1 100 0.0 N 46 59 25 32 987.1 986.8 0.4
16/01:31pm 16.3 8.2 16.3 100 0.0 NNE 54 72 29 39 987.5 987.3 0.4
16/01:30pm 16.3 8.2 16.3 100 0.0 NNE 54 70 29 38 987.6 987.4 0.4
16/01:08pm 16.4 8.3 16.4 100 0.0 NNE 54 72 29 39 988.5 988.2 0.4
16/01:00pm 16.2 8.0 16.2 100 0.0 NNE 54 69 29 37 988.8 988.5 0.4
16/12:30pm 16.5 9.2 16.5 100 0.0 NNE 50 69 27 37 989.5 989.2 0.4
16/12:16pm 16.3 9.7 16.3 100 0.0 NNE 46 67 25 36 989.9 989.6 0.4
16/12:00pm 15.4 9.0 15.4 100 0.0 NNE 43 56 23 30 990.2 989.9 0.4
16/11:30am 15.8 9.6 15.8 100 0.0 NNE 43 56 23 30 991.2 991.0 0.4
16/11:00am 15.7 9.4 15.7 100 0.0 NNE 43 56 23 30 991.8 991.6 0.4
16/10:30am 15.3 10.8 15.3 100 0.0 NNE 33 46 18 25 992.7 992.4 0.4
16/10:00am 14.7 9.1 14.5 99 0.1 NNE 37 46 20 25 993.5 993.2 0.0
16/09:30am 16.0 9.2 13.1 83 1.6 NNE 41 52 22 28 993.7 993.4 0.0
16/09:00am 15.0 9.6 13.9 93 0.6 NNE 35 46 19 25 994.5 994.2 0.0
16/08:30am 14.4 9.2 14.4 100 0.0 NNE 35 43 19 23 994.8 994.6 0.0
16/08:00am 15.8 9.7 14.0 89 1.0 NNE 39 46 21 25 995.3 995.1 0.0
16/07:30am 15.1 10.4 13.3 89 1.0 NNE 30 37 16 20 995.6 995.4 0.0
16/07:00am 15.8 11.3 12.5 81 1.8 N 28 37 15 20 995.6 995.4 0.0
16/06:30am 15.4 10.2 12.7 84 1.5 N 32 39 17 21 996.3 996.1 0.0
16/06:00am 14.2 9.5 13.1 93 0.6 N 30 39 16 21 996.8 996.6 0.0
16/05:30am 13.7 9.2 13.7 100 0.0 N 30 39 16 21 997.2 996.9 0.0
16/05:00am 13.7 9.2 13.7 100 0.0 NNE 30 39 16 21 998.0 997.7 0.0
16/04:30am 13.9 11.0 13.9 100 0.0 NNE 22 32 12 17 998.6 998.4 0.0
16/04:00am 13.9 12.7 13.9 100 0.0 NNE 13 20 7 11 998.8 998.6 0.0
16/03:30am 14.4 13.3 14.4 100 0.0 NNE 13 20 7 11 999.2 999.0 0.0
16/03:00am 14.5 13.1 14.5 100 0.0 NNE 15 19 8 10 999.7 999.5 0.0
16/02:30am 14.9 12.7 14.9 100 0.0 NNE 20 26 11 14 1000.2 1000.0 0.0
16/02:00am 15.1 12.6 15.1 100 0.0 NNE 22 28 12 15 1000.7 1000.5 0.0
16/01:30am 15.2 13.3 15.2 100 0.0 NNE 19 30 10 16 1001.6 1001.3 0.0
16/01:00am 15.1 13.9 15.1 100 0.0 NNE 15 32 8 17 1002.3 1002.1 0.0
16/12:30am 14.9 14.8 14.9 100 0.0 N 9 28 5 15 1002.8 1002.6 0.0
16/12:00am 14.7 14.5 14.7 100 0.0 N 9 20 5 11 1003.5 1003.3 0.0
 
Date/Time
EDT
Temp
°C
App
Temp
°C
Dew
Point
Rel
Hum
%
Delta-T
°C
Wind Press
QNH
hPa
Press
MSL
hPa
Rain
since 9 am
mm
Dir
 
Spd
km/h
Gust
km/h
Spd
kts
Gust
kts
15/11:30pm 14.6 14.8 14.6 100 0.0 ENE 7 22 4 12 1004.0 1003.8 0.0
15/11:00pm 14.6 14.4 14.6 100 0.0 ESE 9 24 5 13 1004.8 1004.6 0.0
15/10:30pm 14.5 14.8 14.5 100 0.0 NNW 6 17 3 9 1005.2 1005.1 0.0
15/10:00pm 14.4 14.1 14.4 100 0.0 NE 9 26 5 14 1005.4 1005.3 0.0
15/09:30pm 14.5 14.6 14.5 100 0.0 E 7 17 4 9 1005.9 1005.7 0.0
15/09:00pm 14.4 14.7 14.4 100 0.0 SE 6 15 3 8 1006.2 1006.0 0.0
15/08:30pm 14.4 14.5 14.4 100 0.0 ENE 7 22 4 12 1006.3 1006.1 0.0

Other Formats:

Comma delimited format used in spreadsheet applications
http://www.bom.gov.au/fwo/IDT60801/IDT60801.95986.axf

JavaScript Object Notation format (JSON) in row-major order
http://www.bom.gov.au/fwo/IDT60801/IDT60801.95986.json